Time;durP1;ratioP1;P1;durP2;ratioP2;P2;SDS_P1;SDS_P2;PMS_P1;PMS_P2;Temp;Humidity;BMP_temperature;BMP_pressure;BME280_temperature;BME280_humidity;BME280_pressure;Samples;Min_cycle;Max_cycle;Signal;HPM_P1;HPM_P2
2022/09/16 00:01:55;;;;;;;8.80;1.25;;;;;;;22.55;68.05;93645.44;4961944;28;20038;-90
2022/09/16 00:04:21;;;;;;;2.95;1.13;;;;;;;22.84;67.36;93645.81;4962009;28;20034;-89
2022/09/16 00:06:46;;;;;;;2.25;0.90;;;;;;;22.70;68.55;93635.72;4945716;28;20129;-89
2022/09/16 00:09:11;;;;;;;2.95;1.00;;;;;;;22.42;69.80;93626.97;4961743;28;20463;-89
2022/09/16 00:11:37;;;;;;;2.65;0.90;;;;;;;22.51;69.48;93640.06;4961806;28;20113;-89
2022/09/16 00:14:03;;;;;;;3.25;1.20;;;;;;;22.66;68.83;93638.34;4961618;28;20037;-89
2022/09/16 00:16:28;;;;;;;4.35;1.33;;;;;;;22.56;69.83;93634.41;4961519;28;20046;-89
2022/09/16 00:18:59;;;;;;;9.30;1.77;;;;;;;22.45;70.22;93631.56;4961706;28;20424;-89
2022/09/16 00:21:26;;;;;;;6.40;1.27;;;;;;;22.55;69.61;93642.78;4945719;28;20427;-89
2022/09/16 00:23:51;;;;;;;4.80;1.35;;;;;;;22.92;68.55;93636.75;4945626;28;20066;-88
2022/09/16 00:26:17;;;;;;;5.07;0.98;;;;;;;21.24;85.65;93639.94;4961370;28;20459;-89
2022/09/16 00:28:42;;;;;;;5.82;1.20;;;;;;;22.41;77.12;93641.44;4961351;28;20090;-89
2022/09/16 00:31:08;;;;;;;6.53;1.67;;;;;;;22.65;76.04;93636.03;4961270;28;20026;-89
2022/09/16 00:33:34;;;;;;;6.68;1.52;;;;;;;21.76;84.83;93629.81;4945526;28;20034;-89
2022/09/16 00:36:17;;;;;;;4.50;1.58;;;;;;;22.01;81.95;93637.41;4961316;28;20421;-88
2022/09/16 00:38:43;;;;;;;5.95;1.65;;;;;;;22.29;79.42;93638.97;4961116;28;20031;-88
2022/09/16 00:41:15;;;;;;;3.78;1.65;;;;;;;22.17;86.38;93637.28;4961299;28;20050;-91
2022/09/16 00:43:58;;;;;;;7.38;1.45;;;;;;;22.19;83.65;93632.34;4961087;28;20041;-90
2022/09/16 00:46:41;;;;;;;4.40;1.33;;;;;;;22.16;84.44;93635.72;4961002;28;20097;-90
2022/09/16 00:49:16;;;;;;;6.35;1.70;;;;;;;22.06;89.58;93634.44;4960806;28;20026;-88
2022/09/16 00:51:43;;;;;;;7.43;1.50;;;;;;;22.10;87.61;93640.63;4961220;28;20026;-89
2022/09/16 00:54:09;;;;;;;4.38;1.48;;;;;;;22.08;86.40;93626.09;4961171;28;20129;-89
2022/09/16 00:56:37;;;;;;;4.35;1.17;;;;;;;21.96;90.83;93635.06;4960989;28;20113;-91
2022/09/16 00:59:29;;;;;;;3.83;1.40;;;;;;;21.90;90.75;93631.94;4960762;28;20058;-88
2022/09/16 01:01:55;;;;;;;6.40;1.60;;;;;;;21.86;94.79;93634.53;4960705;28;20037;-88
2022/09/16 01:04:27;;;;;;;12.38;1.60;;;;;;;21.91;95.76;93627.34;4960789;28;20035;-89
2022/09/16 01:06:53;;;;;;;6.05;1.40;;;;;;;21.22;100.00;93626.97;4961008;28;20031;-89
2022/09/16 01:09:21;;;;;;;8.05;1.65;;;;;;;21.84;95.33;93622.69;4944865;28;20041;-89
2022/09/16 01:11:47;;;;;;;4.72;1.75;;;;;;;22.02;91.79;93628.28;4960880;28;20092;-89
2022/09/16 01:17:19;;;;;;;5.65;1.50;;;;;;;21.12;100.00;93619.56;4951706;28;20142;-89
2022/09/16 01:20:15;;;;;;;6.72;1.95;;;;;;;21.71;96.25;93616.78;4958907;28;20059;-89
2022/09/16 01:23:18;;;;;;;5.78;1.80;;;;;;;21.95;92.93;93620.16;4945355;29;20105;-88
2022/09/16 01:26:05;;;;;;;4.18;1.55;;;;;;;21.80;95.68;93619.94;4962343;29;20035;-89
2022/09/16 01:28:46;;;;;;;7.63;1.83;;;;;;;21.75;92.48;93614.94;4962482;29;20027;-88
2022/09/16 01:31:24;;;;;;;7.68;1.40;;;;;;;21.92;91.45;93612.91;4945280;29;20434;-88
2022/09/16 01:34:15;;;;;;;7.63;1.70;;;;;;;21.50;100.00;93609.94;4945724;29;20062;-90
2022/09/16 01:37:22;;;;;;;3.50;1.65;;;;;;;21.81;92.32;93602.84;4962193;29;20082;-89
2022/09/16 01:40:13;;;;;;;4.82;1.27;;;;;;;21.63;100.00;93602.53;4960299;29;20043;-89
2022/09/16 01:42:49;;;;;;;12.45;1.80;;;;;;;21.69;94.37;93595.03;4959954;29;20050;-88
2022/09/16 01:45:19;;;;;;;5.93;1.58;;;;;;;21.60;94.44;93597.94;4945579;29;20133;-88
2022/09/16 01:48:07;;;;;;;4.68;1.98;;;;;;;21.53;98.05;93595.91;4945156;29;20034;-89
2022/09/16 01:50:43;;;;;;;4.75;1.38;;;;;;;21.19;100.00;93596.50;4961868;29;20117;-89
2022/09/16 01:53:22;;;;;;;6.13;1.90;;;;;;;21.57;94.95;93601.28;4945016;29;20027;-89
2022/09/16 01:56:04;;;;;;;6.63;1.77;;;;;;;21.31;100.00;93597.44;4945032;29;20038;-89
2022/09/16 01:58:39;;;;;;;9.63;1.65;;;;;;;21.15;100.00;93584.22;4944966;29;20030;-89
2022/09/16 02:01:10;;;;;;;7.45;1.80;;;;;;;20.97;100.00;93594.56;4961983;29;20508;-89
2022/09/16 02:03:38;;;;;;;13.45;2.15;;;;;;;20.93;100.00;93591.81;4945015;29;20031;-88
2022/09/16 02:06:14;;;;;;;9.35;1.48;;;;;;;21.35;100.00;93592.94;4960992;29;20027;-89
2022/09/16 02:08:45;;;;;;;8.50;1.80;;;;;;;21.13;100.00;93595.22;4944871;29;20047;-89
2022/09/16 02:11:13;;;;;;;8.68;1.88;;;;;;;21.20;100.00;93591.91;4945095;29;20034;-89
2022/09/16 02:13:50;;;;;;;4.75;1.92;;;;;;;21.35;100.00;93584.16;4944636;29;20035;-90
2022/09/16 02:16:22;;;;;;;9.50;2.15;;;;;;;21.01;100.00;93580.19;4944365;29;20027;-88
2022/09/16 02:18:52;;;;;;;5.75;1.90;;;;;;;20.75;100.00;93584.25;4944777;29;20086;-90
2022/09/16 02:21:18;;;;;;;8.95;1.92;;;;;;;21.21;100.00;93576.72;4944223;29;20032;-89
2022/09/16 02:23:50;;;;;;;7.90;1.80;;;;;;;21.20;100.00;93575.94;4944752;29;20119;-89
2022/09/16 02:26:19;;;;;;;5.63;1.60;;;;;;;21.21;100.00;93584.72;4944630;29;20027;-90
2022/09/16 02:28:47;;;;;;;5.63;1.73;;;;;;;20.64;100.00;93575.28;4944218;29;20322;-89
2022/09/16 02:31:13;;;;;;;7.95;1.65;;;;;;;20.44;100.00;93577.94;4943247;29;20038;-89
2022/09/16 02:34:00;;;;;;;5.05;1.58;;;;;;;20.79;100.00;93575.53;4944132;29;20042;-89
2022/09/16 02:36:26;;;;;;;5.15;1.50;;;;;;;20.94;100.00;93580.03;4944040;29;20043;-89
2022/09/16 02:39:02;;;;;;;6.35;1.80;;;;;;;20.84;100.00;93575.31;4944579;29;20173;-89
2022/09/16 02:41:28;;;;;;;2.92;1.30;;;;;;;20.95;100.00;93578.94;4944140;29;20035;-89
2022/09/16 02:43:53;;;;;;;5.28;1.90;;;;;;;20.96;100.00;93580.47;4960246;29;20027;-89
2022/09/16 02:46:32;;;;;;;5.13;1.55;;;;;;;20.92;100.00;93571.63;4944170;29;20038;-88
2022/09/16 02:49:22;;;;;;;5.63;1.63;;;;;;;21.09;100.00;93574.97;4928278;29;20063;-88
2022/09/16 02:52:03;;;;;;;5.90;1.90;;;;;;;21.11;100.00;93568.19;4960865;29;20035;-89
2022/09/16 02:54:50;;;;;;;4.93;1.50;;;;;;;21.09;100.00;93569.66;4959907;29;20517;-89
2022/09/16 02:57:16;;;;;;;5.60;1.80;;;;;;;21.10;100.00;93573.88;4959783;29;20038;-89
2022/09/16 02:59:42;;;;;;;5.32;1.63;;;;;;;21.43;97.63;93565.28;4959543;29;20042;-88
2022/09/16 03:02:07;;;;;;;5.63;1.35;;;;;;;21.13;100.00;93567.84;4943966;29;20022;-89
2022/09/16 03:04:33;;;;;;;4.82;1.42;;;;;;;21.17;100.00;93566.00;4959895;29;20027;-88
2022/09/16 03:07:00;;;;;;;5.88;1.40;;;;;;;20.79;100.00;93560.34;4959526;29;20034;-88
2022/09/16 03:09:28;;;;;;;6.55;1.77;;;;;;;21.08;100.00;93554.78;4946581;28;20432;-89
2022/09/16 03:12:06;;;;;;;7.40;1.60;;;;;;;21.00;100.00;93549.34;4963600;28;20503;-89
2022/09/16 03:14:46;;;;;;;7.45;1.73;;;;;;;21.21;100.00;93555.41;4974311;28;20026;-88
2022/09/16 03:17:37;;;;;;;5.22;1.70;;;;;;;21.35;99.80;93552.97;4962763;28;20070;-92
2022/09/16 03:20:50;;;;;;;6.82;1.70;;;;;;;21.08;100.00;93552.91;4962768;28;20038;-92
2022/09/16 03:23:31;;;;;;;5.38;1.52;;;;;;;21.29;100.00;93557.84;4962434;28;20121;-91
2022/09/16 03:25:59;;;;;;;3.92;1.25;;;;;;;;;;4962311;28;20026;-91
2022/09/16 03:28:36;;;;;;;5.82;1.35;;;;;;;21.17;100.00;93550.00;4979546;28;20360;-92
2022/09/16 03:31:08;;;;;;;4.32;1.38;;;;;;;21.24;100.00;93557.34;4979567;28;20033;-92
2022/09/16 03:33:33;;;;;;;15.98;2.17;;;;;;;21.26;100.00;93555.09;4962041;28;20081;-92
2022/09/16 03:36:02;;;;;;;9.02;2.00;;;;;;;21.41;100.00;93553.47;4979364;28;20429;-92
2022/09/16 03:38:29;;;;;;;4.22;1.25;;;;;;;21.30;100.00;93554.03;4946309;28;20031;-92
2022/09/16 03:40:54;;;;;;;6.50;1.63;;;;;;;20.74;100.00;93547.34;4946166;28;20121;-91
2022/09/16 03:43:19;;;;;;;4.45;1.75;;;;;;;21.09;100.00;93548.34;4961844;28;20117;-91
2022/09/16 03:45:45;;;;;;;4.43;1.55;;;;;;;20.86;100.00;93551.75;4946303;28;20030;-92
2022/09/16 03:48:12;;;;;;;7.65;2.05;;;;;;;20.71;100.00;93537.38;4946221;28;20027;-93
2022/09/16 03:50:38;;;;;;;11.85;1.95;;;;;;;20.99;100.00;93533.72;4946070;28;20033;-92
2022/09/16 03:53:04;;;;;;;8.20;1.73;;;;;;;20.80;100.00;93529.94;4962278;28;20035;-92
2022/09/16 03:55:29;;;;;;;10.10;1.92;;;;;;;20.83;100.00;93531.94;4946080;28;20078;-92
2022/09/16 03:57:55;;;;;;;9.40;1.70;;;;;;;21.19;100.00;93534.44;4961747;28;20034;-92
2022/09/16 04:00:24;;;;;;;8.80;2.15;;;;;;;20.83;100.00;93531.19;4961887;28;20033;-92
2022/09/16 04:02:50;;;;;;;4.07;1.55;;;;;;;21.19;100.00;93527.25;4961398;28;20043;-92
2022/09/16 04:05:16;;;;;;;7.03;1.65;;;;;;;21.21;100.00;93523.44;4961742;28;20399;-92
2022/09/16 04:08:11;;;;;;;7.90;1.77;;;;;;;21.42;100.00;93526.44;4945738;28;20035;-91
2022/09/16 04:10:36;;;;;;;10.75;2.00;;;;;;;21.01;100.00;93521.59;4977731;28;20034;-91
2022/09/16 04:13:01;;;;;;;7.40;1.70;;;;;;;21.32;100.00;93527.81;4961516;28;20035;-91
2022/09/16 04:15:27;;;;;;;9.65;2.13;;;;;;;21.29;100.00;93520.53;4961608;28;20042;-91
2022/09/16 04:17:53;;;;;;;8.90;1.88;;;;;;;21.27;100.00;93512.13;4961363;28;20463;-91
2022/09/16 04:20:19;;;;;;;8.80;2.08;;;;;;;21.55;100.00;93523.59;4961419;28;20423;-91
2022/09/16 04:22:44;;;;;;;6.65;1.80;;;;;;;21.21;100.00;93510.88;4961334;28;20034;-92
2022/09/16 04:25:10;;;;;;;4.38;1.58;;;;;;;21.42;100.00;93517.69;4961259;28;20093;-92
2022/09/16 04:27:35;;;;;;;10.10;2.00;;;;;;;21.17;100.00;93518.06;4945484;28;20034;-92
2022/09/16 04:30:01;;;;;;;11.18;1.90;;;;;;;21.03;100.00;93516.69;4961480;28;20093;-92
2022/09/16 04:32:26;;;;;;;11.55;2.92;;;;;;;21.17;100.00;93520.72;4945462;28;20038;-93
2022/09/16 04:34:51;;;;;;;11.57;2.20;;;;;;;21.29;100.00;93515.22;4961325;28;20039;-93
2022/09/16 04:40:39;;;;;;;5.65;1.90;;;;;;;21.27;100.00;93519.34;4978355;28;20049;-92
2022/09/16 04:43:04;;;;;;;7.65;1.80;;;;;;;21.38;100.00;93527.53;4945370;28;20415;-92
2022/09/16 04:45:30;;;;;;;7.03;1.75;;;;;;;21.00;100.00;93521.94;4961037;28;20034;-92
2022/09/16 04:47:56;;;;;;;7.53;1.85;;;;;;;21.02;100.00;93517.81;4945274;28;20033;-92
2022/09/16 04:50:22;;;;;;;10.30;1.95;;;;;;;20.90;100.00;93518.75;4945508;28;20455;-92
2022/09/16 04:52:50;;;;;;;11.30;2.05;;;;;;;21.17;100.00;93521.50;4945763;28;20126;-92
2022/09/16 04:55:21;;;;;;;8.48;1.77;;;;;;;21.06;100.00;93523.22;4944624;28;20066;-92
2022/09/16 04:57:47;;;;;;;7.68;1.42;;;;;;;21.24;100.00;93528.06;4961501;28;20129;-92
2022/09/16 05:00:13;;;;;;;7.50;1.58;;;;;;;21.27;100.00;93530.00;4944894;28;20097;-93
2022/09/16 05:02:38;;;;;;;7.43;1.60;;;;;;;21.32;100.00;93540.38;4961199;28;20129;-93
2022/09/16 05:05:04;;;;;;;11.57;1.90;;;;;;;21.10;100.00;93529.34;4945227;28;20133;-91
2022/09/16 05:07:30;;;;;;;11.50;1.95;;;;;;;21.10;100.00;93536.59;4944740;28;20066;-90
2022/09/16 05:09:55;;;;;;;5.70;1.27;;;;;;;21.07;100.00;93531.94;4960544;28;20125;-91
2022/09/16 05:12:21;;;;;;;6.82;1.60;;;;;;;20.98;100.00;93526.84;4960594;28;20109;-89
2022/09/16 05:14:46;;;;;;;7.53;1.70;;;;;;;21.29;100.00;93536.53;4944979;28;20038;-89
2022/09/16 05:17:35;;;;;;;9.25;1.83;;;;;;;21.46;100.00;93529.16;4960820;28;20038;-91
2022/09/16 05:20:01;;;;;;;9.55;1.85;;;;;;;21.45;100.00;93531.06;4976747;28;20031;-90
2022/09/16 05:22:26;;;;;;;6.30;1.77;;;;;;;21.15;100.00;93530.97;4944829;28;20093;-94
2022/09/16 05:24:52;;;;;;;9.68;1.70;;;;;;;21.47;100.00;93531.50;4945644;28;20039;-93
2022/09/16 05:27:17;;;;;;;9.70;1.98;;;;;;;21.15;100.00;93533.63;4945581;28;20030;-92
2022/09/16 05:29:43;;;;;;;10.77;1.67;;;;;;;21.38;100.00;93528.28;4945205;28;20433;-93
2022/09/16 05:32:08;;;;;;;6.57;1.63;;;;;;;21.38;100.00;93528.28;4960711;28;20392;-93
2022/09/16 05:34:35;;;;;;;9.00;1.90;;;;;;;21.53;100.00;93515.97;4945378;28;20038;-93
2022/09/16 05:37:01;;;;;;;5.28;1.80;;;;;;;21.28;100.00;93529.66;4945139;28;20093;-93
2022/09/16 05:39:27;;;;;;;10.10;1.83;;;;;;;21.61;100.00;93522.94;4961040;28;20089;-94
2022/09/16 05:41:55;;;;;;;10.30;1.90;;;;;;;21.65;100.00;93546.19;4961151;28;20038;-94
2022/09/16 05:44:20;;;;;;;8.98;1.70;;;;;;;21.66;100.00;93537.88;4961035;28;20033;-93
2022/09/16 05:46:46;;;;;;;6.15;1.55;;;;;;;21.95;100.00;93526.84;4961213;28;20038;-94
2022/09/16 05:49:11;;;;;;;9.82;1.70;;;;;;;22.30;100.00;93539.88;4945485;28;20050;-94
2022/09/16 05:51:38;;;;;;;12.85;2.33;;;;;;;22.56;100.00;93534.88;4944681;28;20033;-92
2022/09/16 05:54:04;;;;;;;6.05;1.40;;;;;;;22.89;100.00;93533.31;4960692;28;20145;-92
2022/09/16 05:56:30;;;;;;;11.90;1.77;;;;;;;22.83;99.94;93530.22;4960892;28;20138;-92
2022/09/16 05:58:59;;;;;;;8.80;1.80;;;;;;;23.09;100.00;93525.09;4944585;28;20034;-92
2022/09/16 06:01:33;;;;;;;7.55;1.52;;;;;;;23.24;99.33;93523.34;4944625;28;20042;-92
2022/09/16 06:04:04;;;;;;;6.40;1.58;;;;;;;23.33;99.13;93517.72;4960534;28;20031;-93
2022/09/16 06:06:34;;;;;;;16.67;1.90;;;;;;;23.24;100.00;93513.44;4962154;28;20059;-92
2022/09/16 06:09:14;;;;;;;5.97;1.38;;;;;;;23.45;100.00;93512.09;4964125;28;20035;-93
2022/09/16 06:11:42;;;;;;;8.18;1.83;;;;;;;23.34;100.00;93511.22;4964434;28;20023;-92
2022/09/16 06:14:08;;;;;;;6.32;1.40;;;;;;;23.57;100.00;93511.78;4948043;28;20137;-93
2022/09/16 06:16:34;;;;;;;5.80;1.45;;;;;;;23.72;100.00;93511.88;4948130;28;20062;-94
2022/09/16 06:19:01;;;;;;;4.95;1.25;;;;;;;23.85;100.00;93513.13;4947979;28;20085;-93
2022/09/16 06:21:27;;;;;;;9.27;1.80;;;;;;;23.16;100.00;93509.91;4964191;28;20126;-92
2022/09/16 06:23:53;;;;;;;10.75;2.00;;;;;;;23.67;100.00;93518.34;4948229;28;20062;-92
2022/09/16 06:26:21;;;;;;;8.00;1.65;;;;;;;23.77;100.00;93522.22;4964046;28;20065;-93
2022/09/16 06:28:47;;;;;;;8.13;1.80;;;;;;;23.98;100.00;93520.84;4963744;28;20337;-93
2022/09/16 06:31:24;;;;;;;6.45;1.67;;;;;;;24.08;100.00;93522.81;4963979;28;20031;-92
2022/09/16 06:33:50;;;;;;;8.98;1.50;;;;;;;24.06;100.00;93525.09;4963532;28;20073;-92
2022/09/16 06:36:18;;;;;;;6.78;1.90;;;;;;;24.20;100.00;93523.63;4963612;28;20037;-93
2022/09/16 06:38:44;;;;;;;6.10;1.10;;;;;;;24.35;100.00;93511.09;4963882;28;20081;-93
2022/09/16 06:41:11;;;;;;;12.38;2.03;;;;;;;24.38;100.00;93519.13;4963825;28;20061;-94
2022/09/16 06:43:37;;;;;;;4.72;1.67;;;;;;;23.70;100.00;93514.94;4963315;28;20087;-92
2022/09/16 06:46:12;;;;;;;8.15;1.50;;;;;;;23.64;100.00;93518.31;4963117;28;20133;-91
2022/09/16 06:48:39;;;;;;;5.95;1.73;;;;;;;24.16;99.55;93518.25;4963846;28;20040;-91
2022/09/16 06:51:06;;;;;;;6.32;1.23;;;;;;;24.55;95.74;93506.22;4947500;28;20026;-91
2022/09/16 06:53:32;;;;;;;5.88;1.33;;;;;;;24.45;98.68;93514.97;4963107;28;20089;-91
2022/09/16 06:56:03;;;;;;;8.65;1.60;;;;;;;24.75;95.89;93513.91;4962893;28;20058;-92
2022/09/16 06:58:31;;;;;;;8.43;1.48;;;;;;;24.96;94.06;93505.94;4947093;28;20030;-92
2022/09/16 07:00:57;;;;;;;9.07;1.60;;;;;;;24.92;93.29;93507.09;4963063;28;20088;-91
2022/09/16 07:03:22;;;;;;;7.13;1.58;;;;;;;24.95;96.55;93509.00;4947039;28;20054;-92
2022/09/16 07:06:00;;;;;;;7.10;1.42;;;;;;;25.17;95.99;93506.34;4962798;28;20042;-91
2022/09/16 07:08:27;;;;;;;6.28;1.38;;;;;;;25.03;100.00;93510.53;4946864;28;20038;-92
2022/09/16 07:11:00;;;;;;;9.02;1.50;;;;;;;25.32;98.43;93501.75;4947167;28;20034;-92
2022/09/16 07:13:28;;;;;;;5.47;1.60;;;;;;;25.38;98.63;93500.22;4962574;28;20030;-93
2022/09/16 07:15:57;;;;;;;8.25;1.40;;;;;;;25.29;94.81;93497.91;4946711;28;20035;-92
2022/09/16 07:18:23;;;;;;;5.18;1.05;;;;;;;25.45;92.25;93492.19;4962208;28;20042;-91
2022/09/16 07:20:48;;;;;;;6.38;1.40;;;;;;;25.26;95.20;93496.78;4962877;28;20038;-92
2022/09/16 07:23:13;;;;;;;8.57;1.50;;;;;;;25.43;95.41;93502.53;4962738;28;20035;-91
2022/09/16 07:25:39;;;;;;;8.18;1.10;;;;;;;25.20;100.00;93500.97;4962523;28;20074;-91
2022/09/16 07:28:36;;;;;;;4.72;1.20;;;;;;;25.67;94.63;93502.91;4962807;28;20030;-91
2022/09/16 07:31:04;;;;;;;6.18;1.25;;;;;;;25.78;92.85;93500.22;4979570;28;20037;-92
2022/09/16 07:33:31;;;;;;;8.40;1.40;;;;;;;25.53;96.94;93507.13;4946440;28;20085;-91
2022/09/16 07:36:01;;;;;;;7.43;1.52;;;;;;;25.66;89.97;93496.00;4962535;28;20034;-91
2022/09/16 07:38:28;;;;;;;3.22;1.08;;;;;;;25.39;88.08;93496.38;4962438;28;20034;-91
2022/09/16 07:40:54;;;;;;;7.43;1.50;;;;;;;25.40;82.45;93503.31;4946198;28;20508;-92
2022/09/16 07:43:19;;;;;;;7.75;1.63;;;;;;;25.15;86.00;93505.94;4962001;28;20118;-92
2022/09/16 07:45:45;;;;;;;6.20;1.55;;;;;;;25.50;94.39;93507.91;4978380;28;20034;-91
2022/09/16 07:48:10;;;;;;;13.65;1.45;;;;;;;24.70;85.59;93502.44;4962172;28;20037;-91
2022/09/16 07:50:36;;;;;;;4.55;1.30;;;;;;;24.88;84.30;93493.69;4946078;28;20074;-91
2022/09/16 07:53:02;;;;;;;5.95;1.30;;;;;;;25.64;81.03;93509.03;4961967;28;20030;-91
2022/09/16 07:55:28;;;;;;;7.45;1.27;;;;;;;24.79;80.24;93506.66;4946374;28;20038;-91
2022/09/16 07:57:53;;;;;;;4.13;1.20;;;;;;;24.97;78.24;93504.03;4945873;28;20325;-91
2022/09/16 08:00:20;;;;;;;5.63;1.35;;;;;;;25.31;81.79;93506.34;4961771;28;20031;-90
2022/09/16 08:02:45;;;;;;;7.45;1.77;;;;;;;25.61;81.01;93507.13;4961837;28;20043;-90
2022/09/16 08:05:12;;;;;;;4.82;1.38;;;;;;;25.30;84.68;93512.09;4962013;28;20099;-91
2022/09/16 08:07:37;;;;;;;6.68;1.10;;;;;;;25.78;75.80;93514.38;4945826;28;20027;-91
2022/09/16 08:10:03;;;;;;;8.98;1.55;;;;;;;25.87;80.12;93514.00;4961723;28;20071;-91
2022/09/16 08:12:32;;;;;;;4.45;1.30;;;;;;;25.27;75.86;93508.25;4961796;28;20031;-91
2022/09/16 08:14:58;;;;;;;5.88;1.40;;;;;;;25.51;77.54;93514.03;4945256;28;20031;-92
2022/09/16 08:17:25;;;;;;;9.13;1.52;;;;;;;25.43;74.79;93505.22;4961511;28;20408;-91
2022/09/16 08:19:56;;;;;;;8.27;1.65;;;;;;;25.32;77.63;93513.25;4961845;28;20149;-91
2022/09/16 08:22:22;;;;;;;9.43;1.27;;;;;;;25.87;80.32;93521.28;4945974;28;20494;-91
2022/09/16 08:24:48;;;;;;;9.10;1.55;;;;;;;25.48;76.89;93526.28;4945873;28;20023;-90
2022/09/16 08:27:13;;;;;;;7.75;1.63;;;;;;;25.68;73.94;93531.28;4978434;28;20058;-92
2022/09/16 08:29:38;;;;;;;6.75;1.58;;;;;;;26.07;75.94;93529.69;4961405;28;20034;-91
2022/09/16 08:32:04;;;;;;;10.95;1.70;;;;;;;26.11;77.01;93522.38;4961570;28;20118;-90
2022/09/16 08:34:29;;;;;;;9.45;1.45;;;;;;;26.57;75.22;93523.41;4961122;28;20027;-92
2022/09/16 08:36:55;;;;;;;10.68;1.33;;;;;;;26.84;68.66;93528.28;4961526;28;20385;-92
2022/09/16 08:39:20;;;;;;;8.20;1.73;;;;;;;26.93;72.57;93519.78;4961257;28;20503;-92
2022/09/16 08:41:59;;;;;;;11.02;1.45;;;;;;;26.81;71.45;93527.13;4960882;28;20026;-92
2022/09/16 08:44:40;;;;;;;6.05;1.20;;;;;;;27.26;68.29;93524.94;4960998;28;20026;-92
2022/09/16 08:47:20;;;;;;;5.32;1.20;;;;;;;27.27;73.05;93529.94;4978286;28;20039;-92
2022/09/16 08:49:49;;;;;;;9.00;1.48;;;;;;;26.27;72.25;93530.03;4944816;28;20029;-91
2022/09/16 08:52:21;;;;;;;9.70;1.52;;;;;;;26.43;70.94;93520.78;4945263;28;20073;-91
2022/09/16 08:54:53;;;;;;;7.93;1.40;;;;;;;25.76;70.20;93519.38;4960887;28;20027;-92
2022/09/16 08:57:25;;;;;;;4.75;1.35;;;;;;;26.66;67.71;93517.59;4961128;28;20097;-91
2022/09/16 09:00:00;;;;;;;8.55;1.58;;;;;;;26.10;69.21;93524.28;4960775;28;20030;-92
2022/09/16 09:02:41;;;;;;;8.60;1.50;;;;;;;26.54;74.01;93521.50;4960903;28;20041;-91
2022/09/16 09:05:17;;;;;;;5.40;1.52;;;;;;;26.37;78.66;93529.22;4960837;28;20068;-92
2022/09/16 09:08:16;;;;;;;5.20;1.35;;;;;;;26.46;81.13;93536.09;4944827;28;20093;-92
2022/09/16 09:10:44;;;;;;;5.75;1.60;;;;;;;26.25;72.28;93537.69;4943104;28;20039;-90
2022/09/16 09:13:18;;;;;;;4.57;1.15;;;;;;;26.79;71.51;93534.81;4960752;28;20072;-91
2022/09/16 09:16:00;;;;;;;6.10;1.45;;;;;;;25.96;74.59;93527.78;4960923;28;20062;-91
2022/09/16 09:18:48;;;;;;;8.60;1.80;;;;;;;26.19;77.03;93528.53;4960655;28;20023;-91
2022/09/16 09:21:13;;;;;;;7.93;1.58;;;;;;;26.64;76.00;93527.97;4960712;28;20035;-91
2022/09/16 09:23:45;;;;;;;5.47;1.70;;;;;;;26.48;81.97;93533.78;4960355;28;20041;-92
2022/09/16 09:26:21;;;;;;;13.73;1.70;;;;;;;26.20;79.01;93530.81;4941538;29;20035;-93
2022/09/16 09:28:49;;;;;;;7.47;1.38;;;;;;;26.50;79.39;93534.16;4958371;29;20455;-90
2022/09/16 09:31:33;;;;;;;10.60;1.55;;;;;;;25.83;78.67;93532.78;4958652;29;20027;-91
2022/09/16 09:34:08;;;;;;;6.55;1.52;;;;;;;26.73;83.31;93531.00;4941297;29;20125;-91
2022/09/16 09:36:53;;;;;;;6.13;1.30;;;;;;;27.59;74.19;93522.81;4941767;29;20122;-92
2022/09/16 09:39:34;;;;;;;8.35;1.27;;;;;;;27.50;74.26;93529.38;4941491;29;20127;-91
2022/09/16 09:42:10;;;;;;;5.65;1.20;;;;;;;27.55;73.37;93530.16;4943903;29;20066;-91
2022/09/16 09:44:44;;;;;;;2.58;1.05;;;;;;;27.18;74.86;93514.25;4960991;29;20042;-91
2022/09/16 09:47:14;;;;;;;10.68;1.58;;;;;;;26.94;76.07;93535.50;4945215;29;20041;-92
2022/09/16 09:49:45;;;;;;;4.63;1.30;;;;;;;27.67;70.96;93535.03;4944838;29;20039;-90
2022/09/16 09:52:40;;;;;;;2.70;1.02;;;;;;;26.34;74.15;93526.56;4945750;29;20031;-92
2022/09/16 09:55:17;;;;;;;6.15;1.40;;;;;;;25.64;74.85;93517.88;4954349;29;20047;-92
2022/09/16 09:57:55;;;;;;;6.63;1.70;;;;;;;25.97;80.79;93523.19;4929070;29;20034;-91
2022/09/16 10:00:21;;;;;;;4.18;1.10;;;;;;;26.03;74.96;93520.84;4945036;29;20090;-92
2022/09/16 10:02:46;;;;;;;6.15;1.40;;;;;;;26.35;78.82;93526.16;4948200;28;20039;-92
2022/09/16 10:05:26;;;;;;;3.08;1.00;;;;;;;26.04;78.91;93522.38;4963818;28;20474;-91
2022/09/16 10:07:56;;;;;;;2.70;1.25;;;;;;;25.85;80.00;93534.31;4948234;28;20034;-91
2022/09/16 10:10:24;;;;;;;6.78;1.50;;;;;;;25.98;77.30;93536.22;4948139;28;20023;-91
2022/09/16 10:12:53;;;;;;;5.47;1.25;;;;;;;26.53;76.00;93525.31;4948261;28;20459;-92
2022/09/16 10:15:28;;;;;;;5.90;1.30;;;;;;;25.66;79.97;93531.66;4963738;28;20035;-90
2022/09/16 10:17:55;;;;;;;6.90;1.70;;;;;;;25.83;82.31;93532.00;4963441;28;20085;-90
2022/09/16 10:20:22;;;;;;;5.68;1.30;;;;;;;25.79;84.43;93521.28;4963490;28;20042;-90
2022/09/16 10:23:08;;;;;;;9.05;1.42;;;;;;;25.94;84.90;93532.00;4963825;28;20035;-91
2022/09/16 10:25:33;;;;;;;4.68;1.42;;;;;;;26.53;85.47;93528.78;4980576;28;20172;-92
2022/09/16 10:28:05;;;;;;;10.32;1.55;;;;;;;26.58;85.50;93532.22;4947594;28;20125;-90
2022/09/16 10:30:42;;;;;;;8.85;1.48;;;;;;;26.87;77.84;93521.34;4947610;28;20038;-91
2022/09/16 10:33:33;;;;;;;4.55;1.40;;;;;;;26.46;83.04;93528.06;4963634;28;20392;-91
2022/09/16 10:36:16;;;;;;;6.05;1.30;;;;;;;26.57;83.26;93531.47;4952162;28;20043;-92
2022/09/16 10:38:44;;;;;;;7.90;1.50;;;;;;;27.19;73.58;93521.16;4947585;28;20047;-90
2022/09/16 10:41:22;;;;;;;6.90;1.30;;;;;;;26.89;76.67;93519.03;4963372;28;20041;-91
2022/09/16 10:44:16;;;;;;;5.82;1.52;;;;;;;26.43;73.16;93526.16;4980685;28;20057;-92
2022/09/16 10:46:59;;;;;;;6.07;1.48;;;;;;;25.95;78.88;93522.78;4946609;28;20591;-91
2022/09/16 10:49:38;;;;;;;9.98;1.30;;;;;;;26.38;75.95;93516.56;4963046;28;20031;-91
2022/09/16 10:52:27;;;;;;;6.93;1.67;;;;;;;26.16;75.33;93513.91;4962593;28;20069;-91
2022/09/16 10:54:53;;;;;;;6.38;1.30;;;;;;;26.15;81.35;93523.13;4950996;28;20049;-92
2022/09/16 10:57:30;;;;;;;6.03;1.35;;;;;;;25.08;85.12;93522.78;4962938;28;20027;-90
2022/09/16 10:59:56;;;;;;;9.98;1.65;;;;;;;25.11;88.63;93520.13;4962825;28;20331;-91
2022/09/16 11:02:31;;;;;;;4.75;1.23;;;;;;;25.22;83.82;93517.44;4946800;28;20042;-91
2022/09/16 11:05:07;;;;;;;6.22;1.58;;;;;;;26.20;79.22;93520.09;4962992;28;20042;-90
2022/09/16 11:08:16;;;;;;;7.65;1.67;;;;;;;25.66;79.27;93512.09;4947113;28;20046;-90
2022/09/16 11:11:14;;;;;;;8.65;1.52;;;;;;;26.68;74.98;93528.72;4959811;28;20512;-91
2022/09/16 11:14:02;;;;;;;6.97;1.50;;;;;;;26.68;72.98;93524.13;4918787;28;20422;-91
2022/09/16 11:16:45;;;;;;;12.05;1.60;;;;;;;26.50;76.01;93518.06;4979832;28;20061;-91
2022/09/16 11:19:10;;;;;;;;;;;;;;;26.85;73.54;93518.28;4963059;28;20035;-90
2022/09/16 11:21:39;;;;;;;8.10;1.70;;;;;;;27.22;81.17;93509.59;4979640;28;19921;-90
2022/09/16 11:24:37;;;;;;;4.25;1.30;;;;;;;26.73;69.56;93516.81;4962497;28;20404;-90
2022/09/16 11:27:35;;;;;;;5.97;1.60;;;;;;;27.22;67.62;93509.59;4962464;28;20030;-92
2022/09/16 11:30:15;;;;;;;6.55;1.65;;;;;;;28.29;63.33;93505.63;4946478;28;20384;-93
2022/09/16 11:32:59;;;;;;;5.90;1.25;;;;;;;28.28;61.22;93504.09;4962412;28;20495;-90
2022/09/16 11:35:31;;;;;;;5.65;1.25;;;;;;;28.01;60.05;93503.97;4962624;28;20097;-91
2022/09/16 11:38:16;;;;;;;10.60;1.63;;;;;;;28.07;60.17;93495.03;4962312;28;20038;-91
2022/09/16 11:41:06;;;;;;;5.78;1.23;;;;;;;28.11;58.40;93505.00;4962423;28;20439;-91
2022/09/16 11:43:37;;;;;;;5.53;1.80;;;;;;;28.06;56.65;93490.81;4962197;28;20444;-91
2022/09/16 11:46:09;;;;;;;4.57;1.20;;;;;;;27.12;58.94;93491.66;4962170;28;20073;-91
2022/09/16 11:48:54;;;;;;;3.75;1.10;;;;;;;27.00;61.07;93487.50;4979135;28;20027;-92
2022/09/16 11:51:32;;;;;;;5.35;1.23;;;;;;;26.73;60.34;93490.69;4979129;28;20105;-92
2022/09/16 11:54:07;;;;;;;6.93;1.17;;;;;;;27.37;60.02;93488.75;4962012;28;20054;-91
2022/09/16 11:56:43;;;;;;;5.57;1.02;;;;;;;28.42;58.13;93472.78;4979098;28;20428;-91
2022/09/16 11:59:14;;;;;;;4.43;1.00;;;;;;;28.68;54.18;93479.34;4946342;28;20031;-91